sensor_id;sensor_type;location;lat;lon;timestamp;temperature;humidity
18266;DHT22;9259;48.194;16.322;2023-02-15T00:01:59;4.00;99.90
18266;DHT22;9259;48.194;16.322;2023-02-15T00:04:27;4.00;99.90
18266;DHT22;9259;48.194;16.322;2023-02-15T00:07:15;4.00;99.90
18266;DHT22;9259;48.194;16.322;2023-02-15T00:09:45;3.70;99.90
18266;DHT22;9259;48.194;16.322;2023-02-15T00:12:15;4.20;99.90
18266;DHT22;9259;48.194;16.322;2023-02-15T00:14:43;4.20;99.90
18266;DHT22;9259;48.194;16.322;2023-02-15T00:17:11;4.20;99.90
18266;DHT22;9259;48.194;16.322;2023-02-15T00:19:39;4.10;99.90
18266;DHT22;9259;48.194;16.322;2023-02-15T00:22:07;3.90;99.90
18266;DHT22;9259;48.194;16.322;2023-02-15T00:24:37;3.80;99.90
18266;DHT22;9259;48.194;16.322;2023-02-15T00:27:05;3.80;99.90
18266;DHT22;9259;48.194;16.322;2023-02-15T00:29:34;3.90;99.90
18266;DHT22;9259;48.194;16.322;2023-02-15T00:32:02;3.80;99.90
18266;DHT22;9259;48.194;16.322;2023-02-15T00:34:30;3.80;99.90
18266;DHT22;9259;48.194;16.322;2023-02-15T00:36:58;3.90;99.90
18266;DHT22;9259;48.194;16.322;2023-02-15T00:39:26;3.90;99.90
18266;DHT22;9259;48.194;16.322;2023-02-15T00:41:56;3.90;99.90
18266;DHT22;9259;48.194;16.322;2023-02-15T00:44:24;3.50;99.90
18266;DHT22;9259;48.194;16.322;2023-02-15T00:46:52;3.60;99.90
18266;DHT22;9259;48.194;16.322;2023-02-15T00:49:21;3.90;99.90
18266;DHT22;9259;48.194;16.322;2023-02-15T00:51:49;3.90;99.90
18266;DHT22;9259;48.194;16.322;2023-02-15T00:54:18;4.00;99.90
18266;DHT22;9259;48.194;16.322;2023-02-15T00:56:46;3.80;99.90
18266;DHT22;9259;48.194;16.322;2023-02-15T00:59:15;3.80;99.90
18266;DHT22;9259;48.194;16.322;2023-02-15T01:01:43;3.70;99.90
18266;DHT22;9259;48.194;16.322;2023-02-15T01:04:11;3.80;99.90
18266;DHT22;9259;48.194;16.322;2023-02-15T01:06:39;3.80;99.90
18266;DHT22;9259;48.194;16.322;2023-02-15T01:09:07;3.90;99.90
18266;DHT22;9259;48.194;16.322;2023-02-15T01:11:35;4.00;99.90
18266;DHT22;9259;48.194;16.322;2023-02-15T01:14:03;3.90;99.90
18266;DHT22;9259;48.194;16.322;2023-02-15T01:16:33;3.90;99.90
18266;DHT22;9259;48.194;16.322;2023-02-15T01:19:01;3.80;99.90
18266;DHT22;9259;48.194;16.322;2023-02-15T01:21:29;3.80;99.90
18266;DHT22;9259;48.194;16.322;2023-02-15T01:24:00;3.70;99.90
18266;DHT22;9259;48.194;16.322;2023-02-15T01:26:28;3.80;99.90
18266;DHT22;9259;48.194;16.322;2023-02-15T01:28:56;3.80;99.90
18266;DHT22;9259;48.194;16.322;2023-02-15T01:31:24;3.80;99.90
18266;DHT22;9259;48.194;16.322;2023-02-15T01:33:53;3.80;99.90
18266;DHT22;9259;48.194;16.322;2023-02-15T01:36:21;3.80;99.90
18266;DHT22;9259;48.194;16.322;2023-02-15T01:38:49;3.70;99.90
18266;DHT22;9259;48.194;16.322;2023-02-15T01:41:17;3.60;99.90
18266;DHT22;9259;48.194;16.322;2023-02-15T01:43:51;3.70;99.90
18266;DHT22;9259;48.194;16.322;2023-02-15T01:46:23;3.70;99.90
18266;DHT22;9259;48.194;16.322;2023-02-15T01:48:57;3.70;99.90
18266;DHT22;9259;48.194;16.322;2023-02-15T01:51:31;3.80;99.90
18266;DHT22;9259;48.194;16.322;2023-02-15T01:54:03;3.80;99.90
18266;DHT22;9259;48.194;16.322;2023-02-15T01:56:37;3.90;99.90
18266;DHT22;9259;48.194;16.322;2023-02-15T01:59:09;3.60;99.90
18266;DHT22;9259;48.194;16.322;2023-02-15T02:01:40;3.80;99.90
18266;DHT22;9259;48.194;16.322;2023-02-15T02:04:15;3.70;99.90
18266;DHT22;9259;48.194;16.322;2023-02-15T02:06:46;3.80;99.90
18266;DHT22;9259;48.194;16.322;2023-02-15T02:09:15;3.70;99.90
18266;DHT22;9259;48.194;16.322;2023-02-15T02:11:46;3.80;99.90
18266;DHT22;9259;48.194;16.322;2023-02-15T02:14:14;3.80;99.90
18266;DHT22;9259;48.194;16.322;2023-02-15T02:16:48;3.80;99.90
18266;DHT22;9259;48.194;16.322;2023-02-15T02:19:40;3.90;99.90
18266;DHT22;9259;48.194;16.322;2023-02-15T02:25:58;3.80;99.90
18266;DHT22;9259;48.194;16.322;2023-02-15T02:31:53;3.60;99.90
18266;DHT22;9259;48.194;16.322;2023-02-15T02:34:37;3.60;99.90
18266;DHT22;9259;48.194;16.322;2023-02-15T02:37:16;3.70;99.90
18266;DHT22;9259;48.194;16.322;2023-02-15T02:39:54;3.60;99.90
18266;DHT22;9259;48.194;16.322;2023-02-15T02:42:29;3.80;99.90
18266;DHT22;9259;48.194;16.322;2023-02-15T02:45:06;3.70;99.90
18266;DHT22;9259;48.194;16.322;2023-02-15T02:47:40;3.50;99.90
18266;DHT22;9259;48.194;16.322;2023-02-15T02:50:16;3.60;99.90
18266;DHT22;9259;48.194;16.322;2023-02-15T02:52:46;3.60;99.90
18266;DHT22;9259;48.194;16.322;2023-02-15T02:55:18;3.60;99.90
18266;DHT22;9259;48.194;16.322;2023-02-15T02:57:52;3.60;99.90
18266;DHT22;9259;48.194;16.322;2023-02-15T03:00:24;3.60;99.90
18266;DHT22;9259;48.194;16.322;2023-02-15T03:02:58;3.50;99.90
18266;DHT22;9259;48.194;16.322;2023-02-15T03:05:34;3.50;99.90
18266;DHT22;9259;48.194;16.322;2023-02-15T03:08:07;3.50;99.90
18266;DHT22;9259;48.194;16.322;2023-02-15T03:10:37;3.70;99.90
18266;DHT22;9259;48.194;16.322;2023-02-15T03:13:07;3.90;99.90
18266;DHT22;9259;48.194;16.322;2023-02-15T03:15:38;3.90;99.90
18266;DHT22;9259;48.194;16.322;2023-02-15T03:18:28;3.90;99.90
18266;DHT22;9259;48.194;16.322;2023-02-15T03:21:01;3.80;99.90
18266;DHT22;9259;48.194;16.322;2023-02-15T03:23:32;3.80;99.90
18266;DHT22;9259;48.194;16.322;2023-02-15T03:26:03;3.70;99.90
18266;DHT22;9259;48.194;16.322;2023-02-15T03:28:36;3.60;99.90
18266;DHT22;9259;48.194;16.322;2023-02-15T03:31:10;3.50;99.90
18266;DHT22;9259;48.194;16.322;2023-02-15T03:33:44;3.60;99.90
18266;DHT22;9259;48.194;16.322;2023-02-15T03:36:22;3.40;99.90
18266;DHT22;9259;48.194;16.322;2023-02-15T03:38:59;3.40;99.90
18266;DHT22;9259;48.194;16.322;2023-02-15T03:41:34;3.60;99.90
18266;DHT22;9259;48.194;16.322;2023-02-15T03:44:08;3.50;99.90
18266;DHT22;9259;48.194;16.322;2023-02-15T03:46:43;3.50;99.90
18266;DHT22;9259;48.194;16.322;2023-02-15T03:49:18;3.60;99.90
18266;DHT22;9259;48.194;16.322;2023-02-15T03:51:52;3.50;99.90
18266;DHT22;9259;48.194;16.322;2023-02-15T03:54:25;3.40;99.90
18266;DHT22;9259;48.194;16.322;2023-02-15T03:57:21;3.40;99.90
18266;DHT22;9259;48.194;16.322;2023-02-15T04:00:16;3.30;99.90
18266;DHT22;9259;48.194;16.322;2023-02-15T04:03:17;3.30;99.90
18266;DHT22;9259;48.194;16.322;2023-02-15T04:05:50;3.30;99.90
18266;DHT22;9259;48.194;16.322;2023-02-15T04:08:20;3.30;99.90
18266;DHT22;9259;48.194;16.322;2023-02-15T04:11:08;3.30;99.90
18266;DHT22;9259;48.194;16.322;2023-02-15T04:13:35;3.40;99.90
18266;DHT22;9259;48.194;16.322;2023-02-15T04:16:03;3.20;99.90
18266;DHT22;9259;48.194;16.322;2023-02-15T04:18:31;3.20;99.90
18266;DHT22;9259;48.194;16.322;2023-02-15T04:21:17;3.20;99.90
18266;DHT22;9259;48.194;16.322;2023-02-15T04:24:05;3.30;99.90
18266;DHT22;9259;48.194;16.322;2023-02-15T04:26:50;3.20;99.90
18266;DHT22;9259;48.194;16.322;2023-02-15T04:29:20;3.10;99.90
18266;DHT22;9259;48.194;16.322;2023-02-15T04:31:49;3.10;99.90
18266;DHT22;9259;48.194;16.322;2023-02-15T04:34:17;3.10;99.90
18266;DHT22;9259;48.194;16.322;2023-02-15T04:36:46;3.10;99.90
18266;DHT22;9259;48.194;16.322;2023-02-15T04:39:16;3.10;99.90
18266;DHT22;9259;48.194;16.322;2023-02-15T04:41:46;3.00;99.90
18266;DHT22;9259;48.194;16.322;2023-02-15T04:44:15;3.00;99.90
18266;DHT22;9259;48.194;16.322;2023-02-15T04:46:43;3.00;99.90
18266;DHT22;9259;48.194;16.322;2023-02-15T04:49:11;3.00;99.90
18266;DHT22;9259;48.194;16.322;2023-02-15T04:51:39;3.00;99.90
18266;DHT22;9259;48.194;16.322;2023-02-15T04:54:07;3.10;99.90
18266;DHT22;9259;48.194;16.322;2023-02-15T04:56:39;3.10;99.90
18266;DHT22;9259;48.194;16.322;2023-02-15T04:59:09;3.10;99.90
18266;DHT22;9259;48.194;16.322;2023-02-15T05:01:38;3.10;99.90
18266;DHT22;9259;48.194;16.322;2023-02-15T05:04:06;3.10;99.90
18266;DHT22;9259;48.194;16.322;2023-02-15T05:06:34;3.10;99.90
18266;DHT22;9259;48.194;16.322;2023-02-15T05:09:02;3.10;99.90
18266;DHT22;9259;48.194;16.322;2023-02-15T05:11:30;3.10;99.90
18266;DHT22;9259;48.194;16.322;2023-02-15T05:14:00;3.10;99.90
18266;DHT22;9259;48.194;16.322;2023-02-15T05:16:28;2.70;99.90
18266;DHT22;9259;48.194;16.322;2023-02-15T05:18:56;2.90;99.90
18266;DHT22;9259;48.194;16.322;2023-02-15T05:21:24;3.10;99.90
18266;DHT22;9259;48.194;16.322;2023-02-15T05:23:52;3.10;99.90
18266;DHT22;9259;48.194;16.322;2023-02-15T05:26:22;3.10;99.90
18266;DHT22;9259;48.194;16.322;2023-02-15T05:29:10;3.10;99.90
18266;DHT22;9259;48.194;16.322;2023-02-15T05:31:38;3.10;99.90
18266;DHT22;9259;48.194;16.322;2023-02-15T05:34:06;3.10;99.90
18266;DHT22;9259;48.194;16.322;2023-02-15T05:36:34;3.10;99.90
18266;DHT22;9259;48.194;16.322;2023-02-15T05:39:02;3.00;99.90
18266;DHT22;9259;48.194;16.322;2023-02-15T05:41:32;3.00;99.90
18266;DHT22;9259;48.194;16.322;2023-02-15T05:44:00;3.00;99.90
18266;DHT22;9259;48.194;16.322;2023-02-15T12:26:11;3.00;99.90
18266;DHT22;9259;48.194;16.322;2023-02-15T12:28:40;6.90;99.90
18266;DHT22;9259;48.194;16.322;2023-02-15T12:31:20;6.70;99.90
18266;DHT22;9259;48.194;16.322;2023-02-15T12:33:52;6.50;99.90
18266;DHT22;9259;48.194;16.322;2023-02-15T12:54:37;6.90;99.90
18266;DHT22;9259;48.194;16.322;2023-02-15T12:57:22;10.30;99.90
18266;DHT22;9259;48.194;16.322;2023-02-15T12:59:54;11.10;99.90
